Time;durP1;ratioP1;P1;durP2;ratioP2;P2;SDS_P1;SDS_P2;PMS_P1;PMS_P2;Temp;Humidity;BMP_temperature;BMP_pressure;BME280_temperature;BME280_humidity;BME280_pressure;Samples;Min_cycle;Max_cycle;Signal;HPM_P1;HPM_P2
2021/07/17 00:00:35;;;;;;;6.93;6.33;;;;;23.40;101314.00;;;;2059087;28;20234;-65
2021/07/17 00:01:36;;;;;;;7.67;6.10;;;;;23.40;101316.00;;;;2062035;28;20276;-65
2021/07/17 00:02:36;;;;;;;6.90;5.83;;;;;23.40;101314.00;;;;2059112;28;20462;-65
2021/07/17 00:03:36;;;;;;;6.30;5.70;;;;;23.40;101317.00;;;;2059060;28;20219;-65
2021/07/17 00:04:37;;;;;;;7.17;6.17;;;;;23.40;101312.00;;;;2059341;28;20724;-65
2021/07/17 00:05:37;;;;;;;6.70;6.10;;;;;23.40;101313.00;;;;2059768;28;20737;-65
2021/07/17 00:06:37;;;;;;;7.57;6.60;;;;;23.50;101314.00;;;;2059702;28;20706;-65
2021/07/17 00:07:38;;;;;;;6.43;5.83;;;;;23.50;101319.00;;;;2059695;28;20597;-65
2021/07/17 00:08:38;;;;;;;7.90;6.77;;;;;23.40;101316.00;;;;2059428;28;20851;-65
2021/07/17 00:09:39;;;;;;;6.67;6.07;;;;;23.40;101314.00;;;;2058783;28;20277;-65
2021/07/17 00:10:42;;;;;;;6.50;5.90;;;;;23.40;101312.00;;;;2058204;28;20238;-65
2021/07/17 00:11:42;;;;;;;8.95;6.78;;;;;23.40;101314.00;;;;2058947;28;20227;-65
2021/07/17 00:12:42;;;;;;;7.77;6.17;;;;;23.40;101315.00;;;;2059173;28;20223;-66
2021/07/17 00:13:43;;;;;;;7.03;6.00;;;;;23.40;101313.00;;;;2058536;28;20246;-65
2021/07/17 00:14:43;;;;;;;6.90;6.20;;;;;23.40;101314.00;;;;2049926;28;20223;-65
2021/07/17 00:15:43;;;;;;;6.50;5.90;;;;;23.40;101318.00;;;;2059123;28;20246;-65
2021/07/17 00:16:44;;;;;;;9.93;7.07;;;;;23.40;101314.00;;;;2055866;28;20219;-65
2021/07/17 00:17:45;;;;;;;7.03;6.33;;;;;23.50;101317.00;;;;2059689;28;20219;-65
2021/07/17 00:18:45;;;;;;;7.10;5.97;;;;;23.40;101315.00;;;;2059567;28;20274;-65
2021/07/17 00:19:45;;;;;;;8.30;6.10;;;;;23.40;101312.00;;;;2059690;28;20219;-65
2021/07/17 00:20:47;;;;;;;8.13;6.37;;;;;23.40;101311.00;;;;2059075;28;20632;-64
2021/07/17 00:21:47;;;;;;;6.75;6.05;;;;;23.40;101313.00;;;;2058389;28;20247;-65
2021/07/17 00:22:47;;;;;;;7.37;6.03;;;;;23.40;101309.00;;;;2057493;28;20215;-65
2021/07/17 00:23:48;;;;;;;8.03;6.27;;;;;23.40;101306.00;;;;2061273;28;20210;-65
2021/07/17 00:24:48;;;;;;;6.90;5.97;;;;;23.40;101311.00;;;;2060505;28;20282;-65
2021/07/17 00:25:53;;;;;;;6.80;6.20;;;;;23.40;101308.00;;;;2058307;28;20253;-65
2021/07/17 00:26:53;;;;;;;6.43;5.82;;;;;23.40;101296.00;;;;2057894;28;20226;-65
2021/07/17 00:27:54;;;;;;;7.80;6.30;;;;;23.40;101305.00;;;;2058287;28;20675;-65
2021/07/17 00:28:55;;;;;;;6.53;5.70;;;;;23.40;101303.00;;;;2058378;28;20282;-65
2021/07/17 00:29:55;;;;;;;7.65;6.32;;;;;23.50;101299.00;;;;2058809;28;20689;-66
2021/07/17 00:30:56;;;;;;;8.10;6.00;;;;;23.40;101305.00;;;;2058179;28;20219;-65
2021/07/17 00:31:56;;;;;;;7.07;6.37;;;;;23.40;101304.00;;;;2058961;28;20218;-66
2021/07/17 00:32:56;;;;;;;7.33;5.40;;;;;23.40;101298.00;;;;2058735;28;20231;-65
2021/07/17 00:33:57;;;;;;;6.37;5.77;;;;;23.40;101300.00;;;;2059371;28;20662;-65
2021/07/17 00:34:57;;;;;;;8.57;5.73;;;;;23.40;101306.00;;;;2059611;28;20662;-65
2021/07/17 00:35:58;;;;;;;7.00;6.30;;;;;23.40;101297.00;;;;2050923;28;20216;-65
2021/07/17 00:36:58;;;;;;;6.90;6.30;;;;;23.40;101303.00;;;;2050985;28;20282;-65
2021/07/17 00:37:58;;;;;;;6.70;6.00;;;;;23.40;101297.00;;;;2059023;28;20249;-64
2021/07/17 00:38:59;;;;;;;7.47;6.80;;;;;23.40;101304.00;;;;2058817;28;20218;-65
2021/07/17 00:40:03;;;;;;;6.43;5.77;;;;;23.40;101297.00;;;;2058559;28;20225;-64
2021/07/17 00:41:03;;;;;;;5.88;5.30;;;;;23.40;101294.00;;;;2058208;28;20258;-66
2021/07/17 00:42:04;;;;;;;5.70;5.13;;;;;23.40;101297.00;;;;2059372;28;20231;-65
2021/07/17 00:43:04;;;;;;;6.30;5.60;;;;;23.40;101296.00;;;;2059463;28;20219;-65
2021/07/17 00:44:06;;;;;;;5.87;5.37;;;;;23.50;101305.00;;;;2054302;28;20219;-65
2021/07/17 00:45:07;;;;;;;6.05;5.50;;;;;23.40;101298.00;;;;2045107;28;20303;-65
2021/07/17 00:46:07;;;;;;;5.97;5.37;;;;;23.40;101292.00;;;;2047933;28;20208;-65
2021/07/17 00:47:07;;;;;;;8.00;5.80;;;;;23.40;101294.00;;;;2058691;28;20268;-65
2021/07/17 00:48:08;;;;;;;7.23;5.77;;;;;23.40;101293.00;;;;2042260;29;20248;-65
2021/07/17 00:49:08;;;;;;;6.47;5.87;;;;;23.40;101289.00;;;;2033757;29;20222;-65
2021/07/17 00:50:10;;;;;;;7.90;6.80;;;;;23.40;101309.00;;;;2050285;28;20212;-65
2021/07/17 00:51:12;;;;;;;8.70;6.72;;;;;23.40;101289.00;;;;2058682;28;20222;-65
2021/07/17 00:52:12;;;;;;;7.00;6.25;;;;;23.40;101299.00;;;;2049579;28;20219;-65
2021/07/17 00:53:12;;;;;;;7.57;6.27;;;;;23.40;101297.00;;;;2051394;28;20216;-66
2021/07/17 00:54:17;;;;;;;8.00;5.90;;;;;23.40;101304.00;;;;2062079;28;20219;-65
2021/07/17 00:55:18;;;;;;;7.20;5.82;;;;;23.40;101301.00;;;;2055220;28;20691;-65
2021/07/17 00:56:18;;;;;;;8.17;5.93;;;;;23.40;101303.00;;;;2050524;28;20212;-65
2021/07/17 00:57:19;;;;;;;6.70;5.97;;;;;23.40;101309.00;;;;2042019;29;20476;-66
2021/07/17 00:58:22;;;;;;;6.30;5.67;;;;;23.40;101302.00;;;;2027095;29;20311;-65
2021/07/17 00:59:23;;;;;;;6.22;5.35;;;;;23.40;101307.00;;;;2043216;28;20288;-65
2021/07/17 01:00:23;;;;;;;8.20;6.25;;;;;23.40;101304.00;;;;2049971;28;20219;-65
2021/07/17 01:01:26;;;;;;;8.00;6.00;;;;;23.40;101296.00;;;;2050771;28;20678;-65
2021/07/17 01:02:26;;;;;;;5.78;5.15;;;;;23.40;101303.00;;;;2058617;28;20254;-65
2021/07/17 01:03:27;;;;;;;6.00;5.37;;;;;23.40;101301.00;;;;2049989;28;20200;-64
2021/07/17 01:04:27;;;;;;;5.80;5.20;;;;;23.40;101303.00;;;;2042276;29;20304;-65
2021/07/17 01:05:28;;;;;;;6.43;5.53;;;;;23.40;101298.00;;;;2049566;28;20220;-65
2021/07/17 01:06:28;;;;;;;7.07;5.67;;;;;23.40;101298.00;;;;2059309;28;20274;-65
2021/07/17 01:07:29;;;;;;;6.33;5.67;;;;;23.40;101297.00;;;;2050463;28;20364;-65
2021/07/17 01:08:29;;;;;;;6.77;6.03;;;;;23.40;101299.00;;;;2042729;29;20212;-65
2021/07/17 01:09:29;;;;;;;6.40;5.80;;;;;23.40;101294.00;;;;2050299;28;20215;-65
2021/07/17 01:10:30;;;;;;;6.57;5.73;;;;;23.40;101304.00;;;;2049196;28;20307;-65
2021/07/17 01:11:30;;;;;;;6.40;5.70;;;;;23.40;101294.00;;;;2049928;28;20203;-65
2021/07/17 01:12:31;;;;;;;6.80;6.10;;;;;23.40;101301.00;;;;2058472;28;20215;-65
2021/07/17 01:13:31;;;;;;;5.77;5.27;;;;;23.40;101304.00;;;;2058374;28;20296;-64
2021/07/17 01:14:31;;;;;;;7.63;6.60;;;;;23.40;101305.00;;;;2059048;28;20208;-64
2021/07/17 01:15:32;;;;;;;6.00;5.40;;;;;23.40;101301.00;;;;2059240;28;20222;-64
2021/07/17 01:16:32;;;;;;;7.70;6.13;;;;;23.40;101298.00;;;;2059294;28;20207;-64
2021/07/17 01:17:33;;;;;;;7.80;6.37;;;;;23.40;101302.00;;;;2059289;28;20199;-64
2021/07/17 01:18:33;;;;;;;9.30;6.67;;;;;23.40;101299.00;;;;2058611;28;20569;-64
2021/07/17 01:19:34;;;;;;;6.20;5.70;;;;;23.40;101308.00;;;;2058056;28;20211;-64
2021/07/17 01:20:34;;;;;;;7.97;6.40;;;;;23.40;101301.00;;;;2057594;28;20253;-64
2021/07/17 01:21:34;;;;;;;6.87;6.13;;;;;23.40;101304.00;;;;2049553;28;20216;-64
2021/07/17 01:22:36;;;;;;;6.60;6.00;;;;;23.40;101302.00;;;;2054610;28;20260;-64
2021/07/17 01:23:38;;;;;;;7.18;6.13;;;;;23.40;101307.00;;;;2060898;28;20764;-64
2021/07/17 01:24:38;;;;;;;6.25;5.70;;;;;23.40;101299.00;;;;2044266;28;20236;-65
2021/07/17 01:25:38;;;;;;;8.77;5.77;;;;;23.40;101303.00;;;;2043126;28;20220;-64
2021/07/17 01:26:40;;;;;;;6.70;6.10;;;;;23.40;101308.00;;;;2050577;28;20216;-64
2021/07/17 01:27:40;;;;;;;6.35;5.70;;;;;23.40;101301.00;;;;2047708;28;20226;-64
2021/07/17 01:28:41;;;;;;;5.63;5.13;;;;;23.40;101304.00;;;;2057893;28;20306;-64
2021/07/17 01:29:41;;;;;;;5.97;5.47;;;;;23.40;101297.00;;;;2057531;28;20261;-64
2021/07/17 01:30:41;;;;;;;6.73;6.13;;;;;23.40;101305.00;;;;2057877;28;20220;-64
2021/07/17 01:31:42;;;;;;;5.90;5.50;;;;;23.50;101308.00;;;;2059058;28;20702;-64
2021/07/17 01:32:42;;;;;;;6.93;6.07;;;;;23.40;101306.00;;;;2041165;29;20801;-64
2021/07/17 01:33:42;;;;;;;6.30;5.50;;;;;23.40;101300.00;;;;2040172;29;20727;-64
2021/07/17 01:34:43;;;;;;;6.70;6.10;;;;;23.40;101304.00;;;;2058402;28;20278;-64
2021/07/17 01:35:44;;;;;;;6.03;5.10;;;;;23.40;101309.00;;;;2059010;28;20216;-64
2021/07/17 01:36:45;;;;;;;6.05;5.50;;;;;23.40;101302.00;;;;2059222;28;20954;-64
2021/07/17 01:37:46;;;;;;;5.72;5.20;;;;;23.40;101310.00;;;;2059891;28;20746;-64
2021/07/17 01:38:46;;;;;;;6.00;5.50;;;;;23.40;101307.00;;;;2060860;28;20277;-64
2021/07/17 01:39:46;;;;;;;7.27;5.47;;;;;23.50;101312.00;;;;2060122;28;20269;-64
2021/07/17 01:40:48;;;;;;;6.70;5.97;;;;;23.40;101306.00;;;;2051015;28;20227;-64
2021/07/17 01:41:48;;;;;;;9.48;6.45;;;;;23.40;101302.00;;;;2051551;28;20218;-64
2021/07/17 01:42:50;;;;;;;6.80;6.10;;;;;23.40;101306.00;;;;2060160;28;20255;-64
2021/07/17 01:43:51;;;;;;;6.15;5.60;;;;;23.40;101307.00;;;;2060471;28;20241;-64
2021/07/17 01:44:51;;;;;;;7.10;5.35;;;;;23.40;101310.00;;;;2060725;28;20216;-64
2021/07/17 01:45:56;;;;;;;6.03;5.37;;;;;23.40;101305.00;;;;2060802;28;20235;-64
2021/07/17 01:46:57;;;;;;;7.18;6.13;;;;;23.40;101314.00;;;;2051871;28;20757;-65
2021/07/17 01:47:57;;;;;;;6.93;6.23;;;;;23.40;101304.00;;;;2051146;28;20215;-65
2021/07/17 01:48:58;;;;;;;8.17;6.50;;;;;23.40;101315.00;;;;2051443;28;20223;-64
2021/07/17 01:49:59;;;;;;;6.50;5.90;;;;;23.40;101307.00;;;;2051200;28;20667;-64
2021/07/17 01:50:59;;;;;;;6.40;5.70;;;;;23.40;101306.00;;;;2059513;28;20711;-64
2021/07/17 01:52:00;;;;;;;7.77;6.50;;;;;23.40;101305.00;;;;2061529;28;20239;-65
2021/07/17 01:53:00;;;;;;;7.77;5.80;;;;;23.40;101306.00;;;;2061956;28;20215;-64
2021/07/17 01:54:01;;;;;;;6.60;5.73;;;;;23.40;101308.00;;;;2061961;28;20321;-64
2021/07/17 01:55:01;;;;;;;6.70;6.00;;;;;23.40;101303.00;;;;2062147;28;20373;-64
2021/07/17 01:56:01;;;;;;;7.93;5.80;;;;;23.40;101309.00;;;;2059613;28;20965;-64
2021/07/17 01:57:02;;;;;;;7.20;6.17;;;;;23.40;101305.00;;;;2059629;28;20211;-64
2021/07/17 01:58:03;;;;;;;7.67;6.33;;;;;23.40;101306.00;;;;2059628;28;20598;-64
2021/07/17 01:59:03;;;;;;;7.17;6.47;;;;;23.40;101299.00;;;;2059140;28;20749;-64
2021/07/17 02:00:04;;;;;;;9.00;6.63;;;;;23.40;101300.00;;;;2059797;28;20250;-64
2021/07/17 02:01:05;;;;;;;6.60;6.00;;;;;23.40;101310.00;;;;2059274;28;20772;-64
2021/07/17 02:02:08;;;;;;;7.57;6.53;;;;;23.40;101301.00;;;;2057571;28;20219;-64
2021/07/17 02:03:09;;;;;;;7.70;5.97;;;;;23.40;101302.00;;;;2060445;28;20223;-64
2021/07/17 02:04:10;;;;;;;6.70;5.40;;;;;23.40;101306.00;;;;2059357;28;20222;-64
2021/07/17 02:05:11;;;;;;;7.77;6.40;;;;;23.40;101304.00;;;;2059104;28;20238;-64
2021/07/17 02:06:12;;;;;;;8.43;6.00;;;;;23.40;101303.00;;;;2059159;28;20578;-64
2021/07/17 02:07:12;;;;;;;5.90;5.40;;;;;23.40;101303.00;;;;2059483;28;20220;-64
2021/07/17 02:08:13;;;;;;;6.97;6.27;;;;;23.40;101302.00;;;;2060537;28;20970;-64
2021/07/17 02:09:14;;;;;;;7.60;6.78;;;;;23.40;101304.00;;;;2060806;28;20222;-64
2021/07/17 02:10:16;;;;;;;7.50;6.67;;;;;23.40;101299.00;;;;2060085;28;20717;-64
2021/07/17 02:11:17;;;;;;;7.00;6.10;;;;;23.40;101298.00;;;;2060683;28;20273;-64
2021/07/17 02:12:17;;;;;;;6.70;5.87;;;;;23.40;101301.00;;;;2060079;28;20341;-64
2021/07/17 02:13:17;;;;;;;7.33;6.27;;;;;23.40;101293.00;;;;2060114;28;20210;-65
2021/07/17 02:14:18;;;;;;;6.00;5.43;;;;;23.40;101291.00;;;;2060062;28;20436;-64
2021/07/17 02:15:18;;;;;;;6.47;5.87;;;;;23.40;101297.00;;;;2059970;28;20266;-64
2021/07/17 02:16:20;;;;;;;6.00;5.40;;;;;23.40;101294.00;;;;2060205;28;20219;-65
2021/07/17 02:17:20;;;;;;;6.07;5.47;;;;;23.40;101296.00;;;;2060598;28;20210;-64
2021/07/17 02:18:25;;;;;;;5.70;5.20;;;;;23.40;101302.00;;;;2060626;28;20246;-65
2021/07/17 02:19:25;;;;;;;7.05;6.15;;;;;23.50;101300.00;;;;2051687;28;20877;-65
2021/07/17 02:20:26;;;;;;;6.17;5.57;;;;;23.40;101295.00;;;;2050643;28;20227;-64
2021/07/17 02:21:26;;;;;;;7.37;5.50;;;;;23.40;101299.00;;;;2059885;28;20246;-65
2021/07/17 02:22:26;;;;;;;6.47;5.77;;;;;23.40;101298.00;;;;2062367;28;20225;-65
2021/07/17 02:23:27;;;;;;;10.17;7.23;;;;;23.40;101295.00;;;;2060952;28;20285;-64
2021/07/17 02:24:27;;;;;;;6.07;5.57;;;;;23.40;101291.00;;;;2060520;28;20222;-64
2021/07/17 02:25:28;;;;;;;8.20;6.17;;;;;23.40;101298.00;;;;2060751;28;20215;-64
2021/07/17 02:26:28;;;;;;;6.20;5.60;;;;;23.40;101291.00;;;;2060681;28;20219;-64
2021/07/17 02:27:28;;;;;;;6.70;5.60;;;;;23.40;101294.00;;;;2060481;28;20227;-64
2021/07/17 02:28:29;;;;;;;6.10;5.60;;;;;23.40;101291.00;;;;2056977;28;20298;-64
2021/07/17 02:29:29;;;;;;;6.23;5.63;;;;;23.50;101295.00;;;;2060561;28;20220;-64
2021/07/17 02:30:29;;;;;;;7.17;5.80;;;;;23.40;101295.00;;;;2059770;28;20227;-64
2021/07/17 02:31:30;;;;;;;7.90;5.70;;;;;23.40;101292.00;;;;2060623;28;20268;-65
2021/07/17 02:32:30;;;;;;;6.80;5.90;;;;;23.40;101297.00;;;;2060117;28;20222;-64
2021/07/17 02:33:30;;;;;;;6.77;6.13;;;;;23.40;101295.00;;;;2059829;28;20221;-64
2021/07/17 02:34:30;;;;;;;6.70;5.80;;;;;23.40;101297.00;;;;2059901;28;20705;-64
2021/07/17 02:35:31;;;;;;;5.27;4.87;;;;;23.40;101305.00;;;;2059880;28;20643;-64
2021/07/17 02:36:31;;;;;;;6.57;5.80;;;;;23.30;101305.00;;;;2059770;28;20744;-64
2021/07/17 02:37:32;;;;;;;6.33;5.80;;;;;23.40;101301.00;;;;2059623;28;20601;-64
2021/07/17 02:38:32;;;;;;;5.80;5.30;;;;;23.40;101299.00;;;;2059659;28;20218;-64
2021/07/17 02:39:32;;;;;;;8.30;6.50;;;;;23.40;101305.00;;;;2059590;28;20238;-64
2021/07/17 02:40:33;;;;;;;6.80;5.73;;;;;23.40;101296.00;;;;2059127;28;20274;-64
2021/07/17 02:41:33;;;;;;;7.07;5.50;;;;;23.40;101293.00;;;;2059659;28;20220;-64
2021/07/17 02:42:34;;;;;;;6.00;5.40;;;;;23.40;101294.00;;;;2059927;28;20302;-64
2021/07/17 02:43:34;;;;;;;7.53;6.30;;;;;23.40;101293.00;;;;2060512;28;20223;-64
2021/07/17 02:44:34;;;;;;;6.00;5.40;;;;;23.50;101297.00;;;;2060502;28;21116;-64
2021/07/17 02:45:35;;;;;;;6.77;5.80;;;;;23.50;101298.00;;;;2059989;28;20597;-64
2021/07/17 02:46:36;;;;;;;5.90;5.40;;;;;23.40;101300.00;;;;2059818;28;20234;-64
2021/07/17 02:47:36;;;;;;;6.50;5.90;;;;;23.40;101301.00;;;;2059835;28;20249;-64
2021/07/17 02:48:37;;;;;;;6.40;5.80;;;;;23.40;101303.00;;;;2056310;28;20227;-63
2021/07/17 02:49:37;;;;;;;6.30;5.80;;;;;23.40;101298.00;;;;2059017;28;20278;-63
2021/07/17 02:50:38;;;;;;;5.90;5.33;;;;;23.40;101308.00;;;;2059810;28;20239;-64
2021/07/17 02:51:38;;;;;;;6.67;6.07;;;;;23.40;101297.00;;;;2060410;28;20271;-64
2021/07/17 02:52:38;;;;;;;7.13;5.30;;;;;23.40;101306.00;;;;2064053;28;20281;-64
2021/07/17 02:53:39;;;;;;;5.93;5.43;;;;;23.40;101297.00;;;;2060451;28;20210;-64
2021/07/17 02:54:39;;;;;;;6.50;5.90;;;;;23.40;101292.00;;;;2062479;28;20203;-64
2021/07/17 02:55:39;;;;;;;6.30;5.70;;;;;23.40;101299.00;;;;2060540;28;20307;-64
2021/07/17 02:56:40;;;;;;;5.80;5.17;;;;;23.40;101296.00;;;;2060530;28;20218;-64
2021/07/17 02:57:40;;;;;;;5.93;5.33;;;;;23.40;101299.00;;;;2059491;28;20222;-65
2021/07/17 02:58:41;;;;;;;6.13;5.53;;;;;23.40;101296.00;;;;2059792;28;20712;-65
2021/07/17 02:59:41;;;;;;;6.63;5.97;;;;;23.40;101295.00;;;;2059327;28;20233;-64
2021/07/17 03:00:41;;;;;;;8.17;5.80;;;;;23.40;101298.00;;;;2058750;28;20219;-64
2021/07/17 03:01:42;;;;;;;6.40;5.80;;;;;23.40;101298.00;;;;2059532;28;20641;-64
2021/07/17 03:02:42;;;;;;;5.80;5.30;;;;;23.40;101297.00;;;;2059713;28;20242;-64
2021/07/17 03:03:42;;;;;;;6.50;5.43;;;;;23.40;101303.00;;;;2060354;28;20718;-64
2021/07/17 03:04:43;;;;;;;7.23;5.80;;;;;23.40;101300.00;;;;2060313;28;20211;-64
2021/07/17 03:05:43;;;;;;;7.27;5.83;;;;;23.40;101304.00;;;;2060084;28;20258;-64
2021/07/17 03:06:43;;;;;;;6.27;5.40;;;;;23.40;101311.00;;;;2060388;28;20225;-64
2021/07/17 03:07:44;;;;;;;8.07;6.30;;;;;23.40;101303.00;;;;2059373;28;20226;-65
2021/07/17 03:08:44;;;;;;;6.57;5.73;;;;;23.40;101293.00;;;;2059284;28;20223;-64
2021/07/17 03:09:44;;;;;;;5.70;5.20;;;;;23.40;101302.00;;;;2059402;28;20211;-64
2021/07/17 03:10:45;;;;;;;5.60;5.10;;;;;23.40;101299.00;;;;2058916;28;20254;-64
2021/07/17 03:11:45;;;;;;;6.40;5.80;;;;;23.50;101300.00;;;;2050054;28;20227;-64
2021/07/17 03:12:45;;;;;;;6.80;6.10;;;;;23.40;101297.00;;;;2059822;28;20216;-65
2021/07/17 03:13:46;;;;;;;6.23;5.70;;;;;23.40;101298.00;;;;2060057;28;20319;-64
2021/07/17 03:14:47;;;;;;;6.30;5.73;;;;;23.40;101292.00;;;;2060336;28;20218;-65
2021/07/17 03:15:50;;;;;;;7.30;6.60;;;;;23.40;101292.00;;;;2060079;28;20247;-64
2021/07/17 03:16:51;;;;;;;8.50;5.80;;;;;23.40;101289.00;;;;2059236;28;20265;-64
2021/07/17 03:17:51;;;;;;;7.57;5.93;;;;;23.40;101296.00;;;;2059299;28;20824;-64
2021/07/17 03:18:52;;;;;;;6.50;5.90;;;;;23.40;101292.00;;;;2059435;28;20244;-65
2021/07/17 03:19:53;;;;;;;5.90;5.35;;;;;23.40;101298.00;;;;2059685;28;20221;-64
2021/07/17 03:20:53;;;;;;;5.93;5.43;;;;;23.40;101293.00;;;;2059465;28;20231;-64
2021/07/17 03:21:53;;;;;;;7.00;6.40;;;;;23.40;101294.00;;;;2060185;28;20467;-63
2021/07/17 03:22:54;;;;;;;6.03;5.53;;;;;23.40;101291.00;;;;2063741;28;20215;-63
2021/07/17 03:23:54;;;;;;;6.67;6.07;;;;;23.40;101302.00;;;;2060990;28;20207;-64
2021/07/17 03:24:54;;;;;;;6.00;5.40;;;;;23.40;101298.00;;;;2060515;28;20199;-63
2021/07/17 03:25:55;;;;;;;6.37;5.50;;;;;23.40;101301.00;;;;2060181;28;20222;-64
2021/07/17 03:26:55;;;;;;;6.30;5.70;;;;;23.40;101295.00;;;;2060040;28;20219;-64
2021/07/17 03:27:55;;;;;;;5.97;5.47;;;;;23.40;101296.00;;;;2059918;28;20226;-64
2021/07/17 03:28:56;;;;;;;5.87;5.37;;;;;23.40;101294.00;;;;2059283;28;20215;-64
2021/07/17 03:29:56;;;;;;;7.30;5.57;;;;;23.40;101297.00;;;;2059282;28;20350;-64
2021/07/17 03:30:56;;;;;;;5.50;5.00;;;;;23.40;101296.00;;;;2058846;28;20729;-64
2021/07/17 03:31:57;;;;;;;6.00;5.50;;;;;23.40;101289.00;;;;2057375;28;20626;-64
2021/07/17 03:32:57;;;;;;;6.60;5.53;;;;;23.40;101302.00;;;;2059802;28;20739;-64
2021/07/17 03:33:58;;;;;;;7.13;5.60;;;;;23.40;101267.00;;;;2059932;28;20589;-64
2021/07/17 03:34:58;;;;;;;5.93;4.90;;;;;23.40;101306.00;;;;2060161;28;20220;-64
2021/07/17 03:35:58;;;;;;;6.50;5.80;;;;;23.40;101306.00;;;;2060261;28;20230;-65
2021/07/17 03:36:59;;;;;;;6.23;5.63;;;;;23.40;101300.00;;;;2059814;28;20215;-64
2021/07/17 03:37:59;;;;;;;6.50;5.90;;;;;23.40;101291.00;;;;2059338;28;20231;-64
2021/07/17 03:38:59;;;;;;;6.07;5.60;;;;;23.40;101299.00;;;;2059071;28;20214;-64
2021/07/17 03:40:00;;;;;;;7.63;6.93;;;;;23.40;101295.00;;;;2059238;28;20212;-63
2021/07/17 03:41:00;;;;;;;7.50;6.53;;;;;23.40;101302.00;;;;2058641;28;20309;-64
2021/07/17 03:42:01;;;;;;;6.40;5.90;;;;;23.40;101293.00;;;;2059249;28;20218;-65
2021/07/17 03:43:01;;;;;;;6.30;5.70;;;;;23.40;101294.00;;;;2059308;28;20854;-64
2021/07/17 03:44:02;;;;;;;7.70;6.13;;;;;23.40;101293.00;;;;2059065;28;20215;-64
2021/07/17 03:45:03;;;;;;;6.57;5.97;;;;;23.40;101292.00;;;;2059253;28;20224;-64
2021/07/17 03:46:03;;;;;;;6.23;5.50;;;;;23.40;101298.00;;;;2059956;28;20224;-64
2021/07/17 03:47:03;;;;;;;6.57;5.97;;;;;23.40;101293.00;;;;2059903;28;20455;-65
2021/07/17 03:48:04;;;;;;;7.67;5.90;;;;;23.40;101294.00;;;;2060138;28;20220;-65
2021/07/17 03:49:04;;;;;;;6.37;5.87;;;;;23.40;101287.00;;;;2060158;28;20322;-64
2021/07/17 03:50:05;;;;;;;7.07;6.37;;;;;23.40;101288.00;;;;2059188;28;20213;-64
2021/07/17 03:51:06;;;;;;;7.57;5.57;;;;;23.40;101288.00;;;;2058688;28;20215;-64
2021/07/17 03:52:06;;;;;;;6.50;5.10;;;;;23.40;101291.00;;;;2060880;28;20723;-64
2021/07/17 03:53:06;;;;;;;6.83;6.17;;;;;23.40;101286.00;;;;2060086;28;20567;-65
2021/07/17 03:54:07;;;;;;;6.30;5.70;;;;;23.40;101285.00;;;;2062397;28;20219;-64
2021/07/17 03:55:08;;;;;;;6.33;5.77;;;;;23.40;101279.00;;;;2057041;28;20226;-64
2021/07/17 03:56:08;;;;;;;6.63;6.03;;;;;23.40;101281.00;;;;2058479;28;20211;-63
2021/07/17 03:57:09;;;;;;;8.13;5.63;;;;;23.40;101285.00;;;;2059155;28;20211;-65
2021/07/17 03:58:09;;;;;;;7.73;6.13;;;;;23.40;101285.00;;;;2059238;28;20211;-64
2021/07/17 03:59:09;;;;;;;7.03;6.40;;;;;23.40;101286.00;;;;2059769;28;20212;-64
2021/07/17 04:00:10;;;;;;;6.73;6.17;;;;;23.40;101283.00;;;;2059672;28;20302;-65
2021/07/17 04:01:10;;;;;;;7.20;6.23;;;;;23.40;101280.00;;;;2058347;28;20222;-64
2021/07/17 04:02:11;;;;;;;6.23;5.67;;;;;23.40;101289.00;;;;2059867;28;20566;-63
2021/07/17 04:03:11;;;;;;;6.50;6.00;;;;;23.40;101290.00;;;;2059088;28;20584;-64
2021/07/17 04:04:13;;;;;;;6.43;5.83;;;;;23.40;101293.00;;;;2058894;28;20210;-64
2021/07/17 04:05:15;;;;;;;7.47;5.65;;;;;23.40;101287.00;;;;2059056;28;20214;-64
2021/07/17 04:06:15;;;;;;;6.53;5.80;;;;;23.40;101290.00;;;;2058981;28;20219;-64
2021/07/17 04:07:16;;;;;;;6.50;5.90;;;;;23.40;101293.00;;;;2059843;28;20298;-64
2021/07/17 04:08:16;;;;;;;6.97;5.83;;;;;23.40;101296.00;;;;2059790;28;20216;-64
2021/07/17 04:09:16;;;;;;;6.77;6.07;;;;;23.40;101294.00;;;;2059742;28;20266;-64
2021/07/17 04:10:17;;;;;;;5.97;5.20;;;;;23.40;101295.00;;;;2059179;28;20260;-64
2021/07/17 04:11:17;;;;;;;5.97;5.40;;;;;23.40;101301.00;;;;2059055;28;20215;-64
2021/07/17 04:12:17;;;;;;;6.80;6.20;;;;;23.40;101302.00;;;;2059143;28;20211;-64
2021/07/17 04:13:18;;;;;;;6.67;6.07;;;;;23.40;101300.00;;;;2059162;28;20293;-64
2021/07/17 04:14:18;;;;;;;6.30;5.70;;;;;23.40;101304.00;;;;2059093;28;20216;-64
2021/07/17 04:15:18;;;;;;;6.53;5.93;;;;;23.40;101306.00;;;;2059095;28;20220;-64
2021/07/17 04:16:19;;;;;;;6.30;5.63;;;;;23.40;101303.00;;;;2059715;28;20215;-64
2021/07/17 04:17:19;;;;;;;5.90;5.30;;;;;23.40;101303.00;;;;2059684;28;20237;-64
2021/07/17 04:18:19;;;;;;;6.83;6.23;;;;;23.40;101301.00;;;;2059628;28;20225;-64
2021/07/17 04:19:20;;;;;;;6.80;6.20;;;;;23.40;101305.00;;;;2059718;28;20219;-64
2021/07/17 04:20:20;;;;;;;6.03;5.43;;;;;23.40;101307.00;;;;2058272;28;20276;-63
2021/07/17 04:21:21;;;;;;;7.70;6.50;;;;;23.40;101313.00;;;;2058825;28;20219;-64
2021/07/17 04:22:21;;;;;;;5.93;5.43;;;;;23.40;101311.00;;;;2061352;28;20215;-65
2021/07/17 04:23:21;;;;;;;6.20;5.70;;;;;23.40;101314.00;;;;2060738;28;20211;-65
2021/07/17 04:24:21;;;;;;;6.90;6.20;;;;;23.40;101314.00;;;;2057820;28;20212;-64
2021/07/17 04:25:22;;;;;;;9.23;6.17;;;;;23.40;101305.00;;;;2059659;28;20294;-64
2021/07/17 04:26:22;;;;;;;5.63;5.20;;;;;23.40;101307.00;;;;2059752;28;20212;-64
2021/07/17 04:27:22;;;;;;;6.07;5.57;;;;;23.40;101313.00;;;;2059372;28;20273;-64
2021/07/17 04:28:23;;;;;;;7.17;6.53;;;;;23.40;101313.00;;;;2059177;28;20246;-64
2021/07/17 04:29:23;;;;;;;5.50;5.00;;;;;23.40;101309.00;;;;2058901;28;20559;-64
2021/07/17 04:30:23;;;;;;;6.60;6.00;;;;;23.40;101319.00;;;;2057619;28;20211;-64
2021/07/17 04:31:24;;;;;;;7.53;5.90;;;;;23.40;101316.00;;;;2061722;28;20222;-64
2021/07/17 04:32:24;;;;;;;6.17;5.60;;;;;23.40;101310.00;;;;2059551;28;20210;-64
2021/07/17 04:33:24;;;;;;;6.90;6.30;;;;;23.40;101311.00;;;;2058896;28;20210;-64
2021/07/17 04:34:25;;;;;;;6.50;5.80;;;;;23.40;101321.00;;;;2058966;28;20215;-64
2021/07/17 04:35:25;;;;;;;6.00;5.40;;;;;23.40;101307.00;;;;2058644;28;20285;-64
2021/07/17 04:36:26;;;;;;;8.00;6.23;;;;;23.40;101323.00;;;;2050347;28;20787;-64
2021/07/17 04:37:26;;;;;;;6.70;6.10;;;;;23.40;101312.00;;;;2042928;29;20623;-64
2021/07/17 04:38:26;;;;;;;7.50;6.70;;;;;23.40;101309.00;;;;2050940;28;20590;-64
2021/07/17 04:39:27;;;;;;;6.87;6.17;;;;;23.40;101315.00;;;;2059617;28;20211;-64
2021/07/17 04:40:27;;;;;;;6.33;5.47;;;;;23.40;101310.00;;;;2058806;28;20230;-64
2021/07/17 04:41:27;;;;;;;6.67;6.00;;;;;23.40;101312.00;;;;2059132;28;20206;-64
2021/07/17 04:42:28;;;;;;;8.10;6.50;;;;;23.40;101316.00;;;;2058898;28;20203;-64
2021/07/17 04:43:28;;;;;;;8.70;6.20;;;;;23.40;101308.00;;;;2058781;28;20294;-64
2021/07/17 04:44:28;;;;;;;6.97;6.23;;;;;23.40;101316.00;;;;2058569;28;20258;-64
2021/07/17 04:45:29;;;;;;;6.80;6.20;;;;;23.40;101306.00;;;;2058618;28;20703;-64
2021/07/17 04:46:29;;;;;;;6.73;6.00;;;;;23.40;101313.00;;;;2058782;28;20563;-64
2021/07/17 04:47:29;;;;;;;6.23;5.63;;;;;23.40;101306.00;;;;2058941;28;20637;-63
2021/07/17 04:48:30;;;;;;;6.60;5.90;;;;;23.40;101308.00;;;;2058870;28;20207;-64
2021/07/17 04:49:30;;;;;;;7.00;6.30;;;;;23.40;101312.00;;;;2058479;28;20235;-64
2021/07/17 04:50:32;;;;;;;6.33;5.83;;;;;23.40;101306.00;;;;2058586;28;20222;-64
2021/07/17 04:51:32;;;;;;;7.38;6.68;;;;;23.40;101307.00;;;;2059497;28;20212;-64
2021/07/17 04:52:32;;;;;;;6.87;6.23;;;;;23.40;101298.00;;;;2062149;28;20559;-64
2021/07/17 04:53:33;;;;;;;6.23;5.63;;;;;23.40;101299.00;;;;2062342;28;20207;-64
2021/07/17 04:54:33;;;;;;;6.83;6.10;;;;;23.40;101299.00;;;;2061295;28;20204;-65
2021/07/17 04:55:33;;;;;;;7.17;5.97;;;;;23.40;101303.00;;;;2059295;28;20581;-64
2021/07/17 04:56:34;;;;;;;8.17;6.70;;;;;23.40;101297.00;;;;2059694;28;20214;-64
2021/07/17 04:57:34;;;;;;;8.20;6.97;;;;;23.40;101305.00;;;;2059437;28;20214;-64
2021/07/17 04:58:34;;;;;;;6.13;5.53;;;;;23.40;101308.00;;;;2059377;28;20211;-64
2021/07/17 04:59:35;;;;;;;6.47;5.80;;;;;23.40;101304.00;;;;2058273;28;20223;-64